sensor_id;sensor_type;location;lat;lon;timestamp;pressure;altitude;pressure_sealevel;temperature;humidity
22283;BME280;11310;51.528;21.204;2022-12-29T00:00:12;99921.22;;;4.47;100.00
22283;BME280;11310;51.528;21.204;2022-12-29T00:02:41;99920.31;;;4.49;100.00
22283;BME280;11310;51.528;21.204;2022-12-29T00:05:10;99919.34;;;4.53;100.00
22283;BME280;11310;51.528;21.204;2022-12-29T00:07:39;99918.47;;;4.53;100.00
22283;BME280;11310;51.528;21.204;2022-12-29T00:10:09;99912.50;;;4.51;100.00
22283;BME280;11310;51.528;21.204;2022-12-29T00:12:38;99905.56;;;4.50;100.00
22283;BME280;11310;51.528;21.204;2022-12-29T00:15:24;99903.69;;;4.55;100.00
22283;BME280;11310;51.528;21.204;2022-12-29T00:18:05;99899.41;;;4.54;100.00
22283;BME280;11310;51.528;21.204;2022-12-29T00:20:35;99897.66;;;4.56;100.00
22283;BME280;11310;51.528;21.204;2022-12-29T00:23:21;99893.31;;;4.55;100.00
22283;BME280;11310;51.528;21.204;2022-12-29T00:26:13;99898.44;;;4.58;100.00
22283;BME280;11310;51.528;21.204;2022-12-29T00:28:59;99888.88;;;4.60;100.00
22283;BME280;11310;51.528;21.204;2022-12-29T00:31:46;99884.66;;;4.56;100.00
22283;BME280;11310;51.528;21.204;2022-12-29T00:34:33;99879.47;;;4.56;100.00
22283;BME280;11310;51.528;21.204;2022-12-29T00:37:19;99881.16;;;4.57;100.00
22283;BME280;11310;51.528;21.204;2022-12-29T00:40:09;99883.69;;;4.60;100.00
22283;BME280;11310;51.528;21.204;2022-12-29T00:42:56;99893.25;;;4.58;100.00
22283;BME280;11310;51.528;21.204;2022-12-29T00:45:43;99884.59;;;4.57;100.00
22283;BME280;11310;51.528;21.204;2022-12-29T00:48:12;99893.25;;;4.58;100.00
22283;BME280;11310;51.528;21.204;2022-12-29T00:50:40;99903.59;;;4.61;100.00
22283;BME280;11310;51.528;21.204;2022-12-29T00:53:08;99901.00;;;4.59;100.00
22283;BME280;11310;51.528;21.204;2022-12-29T00:55:37;99899.22;;;4.61;100.00
22283;BME280;11310;51.528;21.204;2022-12-29T00:58:07;99901.81;;;4.61;100.00
22283;BME280;11310;51.528;21.204;2022-12-29T01:00:35;99903.41;;;4.67;100.00
22283;BME280;11310;51.528;21.204;2022-12-29T01:03:04;99901.69;;;4.67;100.00
22283;BME280;11310;51.528;21.204;2022-12-29T01:05:35;99899.13;;;4.66;100.00
22283;BME280;11310;51.528;21.204;2022-12-29T01:08:06;99894.91;;;4.60;100.00
22283;BME280;11310;51.528;21.204;2022-12-29T01:10:34;99896.69;;;4.60;100.00
22283;BME280;11310;51.528;21.204;2022-12-29T01:13:02;99892.31;;;4.60;100.00
22283;BME280;11310;51.528;21.204;2022-12-29T01:15:32;99898.47;;;4.56;100.00
22283;BME280;11310;51.528;21.204;2022-12-29T01:18:01;99886.34;;;4.57;100.00
22283;BME280;11310;51.528;21.204;2022-12-29T01:20:30;99896.69;;;4.60;100.00
22283;BME280;11310;51.528;21.204;2022-12-29T01:22:59;99880.16;;;4.62;100.00
22283;BME280;11310;51.528;21.204;2022-12-29T01:25:27;99875.81;;;4.63;100.00
22283;BME280;11310;51.528;21.204;2022-12-29T01:27:56;99876.50;;;4.69;100.00
22283;BME280;11310;51.528;21.204;2022-12-29T01:30:25;99873.97;;;4.66;100.00
22283;BME280;11310;51.528;21.204;2022-12-29T01:32:55;99868.72;;;4.69;100.00
22283;BME280;11310;51.528;21.204;2022-12-29T01:35:24;99871.34;;;4.68;100.00
22283;BME280;11310;51.528;21.204;2022-12-29T01:37:53;99865.41;;;4.63;100.00
22283;BME280;11310;51.528;21.204;2022-12-29T01:40:21;99859.09;;;4.73;100.00
22283;BME280;11310;51.528;21.204;2022-12-29T01:42:50;99860.03;;;4.70;100.00
22283;BME280;11310;51.528;21.204;2022-12-29T01:45:19;99855.78;;;4.66;100.00
22283;BME280;11310;51.528;21.204;2022-12-29T01:47:49;99858.34;;;4.68;100.00
22283;BME280;11310;51.528;21.204;2022-12-29T01:50:23;99849.94;;;4.60;100.00
22283;BME280;11310;51.528;21.204;2022-12-29T01:52:58;99852.78;;;4.49;100.00
22283;BME280;11310;51.528;21.204;2022-12-29T01:55:29;99854.66;;;4.44;100.00
22283;BME280;11310;51.528;21.204;2022-12-29T01:58:04;99847.88;;;4.37;100.00
22283;BME280;11310;51.528;21.204;2022-12-29T02:00:34;99846.38;;;4.29;100.00
22283;BME280;11310;51.528;21.204;2022-12-29T02:03:05;99838.69;;;4.23;100.00
22283;BME280;11310;51.528;21.204;2022-12-29T02:05:40;99836.25;;;4.17;100.00
22283;BME280;11310;51.528;21.204;2022-12-29T02:08:12;99836.41;;;4.11;100.00
22283;BME280;11310;51.528;21.204;2022-12-29T02:10:42;99835.66;;;4.06;100.00
22283;BME280;11310;51.528;21.204;2022-12-29T02:13:15;99830.47;;;4.06;100.00
22283;BME280;11310;51.528;21.204;2022-12-29T02:15:51;99841.78;;;4.03;100.00
22283;BME280;11310;51.528;21.204;2022-12-29T02:18:30;99833.16;;;4.01;100.00
22283;BME280;11310;51.528;21.204;2022-12-29T02:24:23;99826.31;;;3.97;100.00
22283;BME280;11310;51.528;21.204;2022-12-29T02:27:15;99818.63;;;3.94;100.00
22283;BME280;11310;51.528;21.204;2022-12-29T02:30:15;99813.47;;;3.93;100.00
22283;BME280;11310;51.528;21.204;2022-12-29T02:32:53;99810.97;;;3.88;100.00
22283;BME280;11310;51.528;21.204;2022-12-29T02:35:33;99824.00;;;3.87;100.00
22283;BME280;11310;51.528;21.204;2022-12-29T02:38:12;99818.88;;;3.84;100.00
22283;BME280;11310;51.528;21.204;2022-12-29T02:40:48;99820.56;;;3.85;100.00
22283;BME280;11310;51.528;21.204;2022-12-29T02:43:24;99812.72;;;3.88;100.00
22283;BME280;11310;51.528;21.204;2022-12-29T02:45:58;99818.72;;;3.90;100.00
22283;BME280;11310;51.528;21.204;2022-12-29T02:48:34;99822.00;;;3.98;100.00
22283;BME280;11310;51.528;21.204;2022-12-29T02:51:09;99813.22;;;4.03;100.00
22283;BME280;11310;51.528;21.204;2022-12-29T02:53:42;99819.19;;;4.07;100.00
22283;BME280;11310;51.528;21.204;2022-12-29T02:56:32;99819.97;;;4.10;100.00
22283;BME280;11310;51.528;21.204;2022-12-29T02:59:01;99819.13;;;4.10;100.00
22283;BME280;11310;51.528;21.204;2022-12-29T03:01:40;99830.31;;;4.12;100.00
22283;BME280;11310;51.528;21.204;2022-12-29T03:04:41;99823.34;;;4.14;100.00
22283;BME280;11310;51.528;21.204;2022-12-29T03:07:17;99826.78;;;4.16;100.00
22283;BME280;11310;51.528;21.204;2022-12-29T03:09:56;99832.69;;;4.21;100.00
22283;BME280;11310;51.528;21.204;2022-12-29T03:12:34;99834.44;;;4.20;100.00
22283;BME280;11310;51.528;21.204;2022-12-29T03:15:26;99829.25;;;4.20;100.00
22283;BME280;11310;51.528;21.204;2022-12-29T03:18:24;99831.69;;;4.28;100.00
22283;BME280;11310;51.528;21.204;2022-12-29T03:21:03;99829.88;;;4.30;100.00
22283;BME280;11310;51.528;21.204;2022-12-29T03:23:36;99831.50;;;4.35;100.00
22283;BME280;11310;51.528;21.204;2022-12-29T03:26:10;99835.59;;;4.44;100.00
22283;BME280;11310;51.528;21.204;2022-12-29T03:28:52;99831.19;;;4.46;100.00
22283;BME280;11310;51.528;21.204;2022-12-29T03:31:30;99833.06;;;4.41;100.00
22283;BME280;11310;51.528;21.204;2022-12-29T03:34:01;99821.03;;;4.37;100.00
22283;BME280;11310;51.528;21.204;2022-12-29T03:36:39;99835.78;;;4.36;100.00
22283;BME280;11310;51.528;21.204;2022-12-29T03:39:13;99833.19;;;4.36;100.00
22283;BME280;11310;51.528;21.204;2022-12-29T03:41:46;99833.22;;;4.35;100.00
22283;BME280;11310;51.528;21.204;2022-12-29T03:44:16;99819.50;;;4.30;100.00
22283;BME280;11310;51.528;21.204;2022-12-29T03:46:45;99821.34;;;4.25;100.00
22283;BME280;11310;51.528;21.204;2022-12-29T03:49:17;99825.88;;;4.17;100.00
22283;BME280;11310;51.528;21.204;2022-12-29T03:51:48;99814.81;;;4.09;100.00
22283;BME280;11310;51.528;21.204;2022-12-29T03:54:19;99813.25;;;4.02;100.00
22283;BME280;11310;51.528;21.204;2022-12-29T03:56:49;99805.69;;;3.93;100.00
22283;BME280;11310;51.528;21.204;2022-12-29T03:59:28;99792.88;;;3.87;100.00
22283;BME280;11310;51.528;21.204;2022-12-29T04:01:59;99791.28;;;3.80;100.00
22283;BME280;11310;51.528;21.204;2022-12-29T04:04:29;99788.84;;;3.74;100.00
22283;BME280;11310;51.528;21.204;2022-12-29T04:07:00;99775.97;;;3.68;100.00
22283;BME280;11310;51.528;21.204;2022-12-29T04:09:30;99769.19;;;3.64;100.00
22283;BME280;11310;51.528;21.204;2022-12-29T04:12:02;99772.72;;;3.60;100.00
22283;BME280;11310;51.528;21.204;2022-12-29T04:14:33;99769.41;;;3.55;100.00
22283;BME280;11310;51.528;21.204;2022-12-29T04:17:22;99769.44;;;3.52;100.00
22283;BME280;11310;51.528;21.204;2022-12-29T04:19:56;99778.97;;;3.50;100.00
22283;BME280;11310;51.528;21.204;2022-12-29T04:22:46;99770.44;;;3.46;100.00
22283;BME280;11310;51.528;21.204;2022-12-29T04:25:15;99766.09;;;3.47;100.00
22283;BME280;11310;51.528;21.204;2022-12-29T04:27:46;99762.66;;;3.46;100.00
22283;BME280;11310;51.528;21.204;2022-12-29T04:30:33;99759.28;;;3.43;100.00
22283;BME280;11310;51.528;21.204;2022-12-29T04:33:10;99750.72;;;3.39;100.00
22283;BME280;11310;51.528;21.204;2022-12-29T04:35:41;99746.47;;;3.35;100.00
22283;BME280;11310;51.528;21.204;2022-12-29T04:38:14;99745.63;;;3.35;100.00
22283;BME280;11310;51.528;21.204;2022-12-29T04:40:45;99736.13;;;3.35;100.00
22283;BME280;11310;51.528;21.204;2022-12-29T04:43:15;99737.88;;;3.33;100.00
22283;BME280;11310;51.528;21.204;2022-12-29T04:46:04;99742.22;;;3.33;100.00
22283;BME280;11310;51.528;21.204;2022-12-29T04:48:53;99740.56;;;3.29;100.00
22283;BME280;11310;51.528;21.204;2022-12-29T04:51:30;99734.63;;;3.25;100.00
22283;BME280;11310;51.528;21.204;2022-12-29T04:54:01;99732.06;;;3.24;100.00
22283;BME280;11310;51.528;21.204;2022-12-29T04:56:30;99726.09;;;3.20;100.00
22283;BME280;11310;51.528;21.204;2022-12-29T04:58:59;99717.59;;;3.14;100.00
22283;BME280;11310;51.528;21.204;2022-12-29T05:01:31;99731.38;;;3.14;100.00
22283;BME280;11310;51.528;21.204;2022-12-29T05:04:04;99731.47;;;3.11;100.00
22283;BME280;11310;51.528;21.204;2022-12-29T05:06:34;99722.06;;;3.06;100.00
22283;BME280;11310;51.528;21.204;2022-12-29T05:09:04;99727.31;;;3.03;100.00
22283;BME280;11310;51.528;21.204;2022-12-29T05:11:35;99718.72;;;3.01;100.00
22283;BME280;11310;51.528;21.204;2022-12-29T05:14:04;99717.03;;;3.00;100.00
22283;BME280;11310;51.528;21.204;2022-12-29T05:16:35;99728.28;;;2.97;100.00
22283;BME280;11310;51.528;21.204;2022-12-29T05:19:05;99713.59;;;2.98;100.00
22283;BME280;11310;51.528;21.204;2022-12-29T05:21:37;99723.97;;;2.98;100.00
22283;BME280;11310;51.528;21.204;2022-12-29T05:24:09;99732.66;;;2.94;100.00
22283;BME280;11310;51.528;21.204;2022-12-29T05:26:39;99735.25;;;2.94;100.00
22283;BME280;11310;51.528;21.204;2022-12-29T05:29:32;99720.63;;;2.93;100.00
22283;BME280;11310;51.528;21.204;2022-12-29T05:32:02;99728.34;;;2.96;100.00
22283;BME280;11310;51.528;21.204;2022-12-29T05:34:35;99723.09;;;2.97;100.00
22283;BME280;11310;51.528;21.204;2022-12-29T05:37:04;99699.69;;;3.02;100.00
22283;BME280;11310;51.528;21.204;2022-12-29T05:39:35;99693.53;;;3.07;100.00
22283;BME280;11310;51.528;21.204;2022-12-29T05:42:07;99694.31;;;3.11;100.00
22283;BME280;11310;51.528;21.204;2022-12-29T05:44:53;99697.81;;;3.10;100.00
22283;BME280;11310;51.528;21.204;2022-12-29T05:47:31;99700.44;;;3.08;100.00
22283;BME280;11310;51.528;21.204;2022-12-29T05:50:29;99700.44;;;3.07;100.00
22283;BME280;11310;51.528;21.204;2022-12-29T05:53:16;99695.28;;;3.05;100.00
22283;BME280;11310;51.528;21.204;2022-12-29T05:55:47;99690.16;;;3.04;100.00
22283;BME280;11310;51.528;21.204;2022-12-29T05:58:17;99697.00;;;3.06;100.00
22283;BME280;11310;51.528;21.204;2022-12-29T06:00:47;99693.47;;;3.09;100.00
22283;BME280;11310;51.528;21.204;2022-12-29T06:03:16;99687.50;;;3.07;100.00
22283;BME280;11310;51.528;21.204;2022-12-29T06:05:46;99688.41;;;3.04;100.00
22283;BME280;11310;51.528;21.204;2022-12-29T06:08:16;99691.03;;;3.03;100.00
22283;BME280;11310;51.528;21.204;2022-12-29T06:10:49;99690.22;;;3.01;100.00
22283;BME280;11310;51.528;21.204;2022-12-29T06:13:18;99682.47;;;2.99;100.00
22283;BME280;11310;51.528;21.204;2022-12-29T06:15:50;99682.47;;;2.99;100.00
22283;BME280;11310;51.528;21.204;2022-12-29T06:18:21;99673.84;;;2.99;100.00
22283;BME280;11310;51.528;21.204;2022-12-29T06:20:50;99686.00;;;2.97;100.00
22283;BME280;11310;51.528;21.204;2022-12-29T06:23:23;99679.94;;;2.96;100.00
22283;BME280;11310;51.528;21.204;2022-12-29T06:25:55;99690.28;;;2.98;100.00
22283;BME280;11310;51.528;21.204;2022-12-29T06:28:24;99689.47;;;2.96;100.00
22283;BME280;11310;51.528;21.204;2022-12-29T06:30:54;99683.47;;;2.94;100.00
22283;BME280;11310;51.528;21.204;2022-12-29T06:33:23;99690.41;;;2.93;100.00
22283;BME280;11310;51.528;21.204;2022-12-29T06:35:55;99689.53;;;2.93;100.00
22283;BME280;11310;51.528;21.204;2022-12-29T06:38:24;99680.88;;;2.94;100.00
22283;BME280;11310;51.528;21.204;2022-12-29T06:40:55;99673.97;;;2.94;100.00
22283;BME280;11310;51.528;21.204;2022-12-29T06:43:44;99679.97;;;2.95;100.00
22283;BME280;11310;51.528;21.204;2022-12-29T06:46:23;99684.22;;;2.99;100.00
22283;BME280;11310;51.528;21.204;2022-12-29T06:48:54;99687.63;;;3.01;100.00
22283;BME280;11310;51.528;21.204;2022-12-29T06:51:23;99687.69;;;2.98;100.00
22283;BME280;11310;51.528;21.204;2022-12-29T06:53:52;99695.41;;;3.01;100.00
22283;BME280;11310;51.528;21.204;2022-12-29T06:56:23;99684.25;;;2.97;100.00
22283;BME280;11310;51.528;21.204;2022-12-29T06:58:53;99691.94;;;3.02;100.00
22283;BME280;11310;51.528;21.204;2022-12-29T07:01:22;99685.03;;;3.01;100.00
22283;BME280;11310;51.528;21.204;2022-12-29T07:03:52;99689.34;;;3.02;100.00
22283;BME280;11310;51.528;21.204;2022-12-29T07:06:23;99681.50;;;3.05;100.00
22283;BME280;11310;51.528;21.204;2022-12-29T07:08:53;99682.34;;;3.05;100.00
22283;BME280;11310;51.528;21.204;2022-12-29T07:11:30;99689.28;;;3.05;100.00
22283;BME280;11310;51.528;21.204;2022-12-29T07:14:00;99687.63;;;3.01;100.00
22283;BME280;11310;51.528;21.204;2022-12-29T07:16:32;99687.75;;;2.95;100.00
22283;BME280;11310;51.528;21.204;2022-12-29T07:19:06;99670.59;;;2.91;100.00
22283;BME280;11310;51.528;21.204;2022-12-29T07:21:36;99679.22;;;2.90;100.00
22283;BME280;11310;51.528;21.204;2022-12-29T07:24:12;99675.88;;;2.85;100.00
22283;BME280;11310;51.528;21.204;2022-12-29T07:26:44;99677.75;;;2.77;100.00
22283;BME280;11310;51.528;21.204;2022-12-29T07:29:13;99683.06;;;2.71;100.00
22283;BME280;11310;51.528;21.204;2022-12-29T07:31:43;99675.47;;;2.63;100.00
22283;BME280;11310;51.528;21.204;2022-12-29T07:34:12;99687.66;;;2.58;100.00
22283;BME280;11310;51.528;21.204;2022-12-29T07:36:42;99690.38;;;2.52;100.00
22283;BME280;11310;51.528;21.204;2022-12-29T07:39:12;99696.47;;;2.50;100.00
22283;BME280;11310;51.528;21.204;2022-12-29T07:41:43;99693.00;;;2.49;100.00
22283;BME280;11310;51.528;21.204;2022-12-29T07:44:21;99686.19;;;2.45;100.00
22283;BME280;11310;51.528;21.204;2022-12-29T07:47:11;99685.25;;;2.48;100.00
22283;BME280;11310;51.528;21.204;2022-12-29T07:49:40;99682.63;;;2.51;100.00
22283;BME280;11310;51.528;21.204;2022-12-29T07:52:09;99692.88;;;2.55;100.00
22283;BME280;11310;51.528;21.204;2022-12-29T07:54:39;99691.88;;;2.64;100.00
22283;BME280;11310;51.528;21.204;2022-12-29T07:57:10;99688.25;;;2.71;100.00
22283;BME280;11310;51.528;21.204;2022-12-29T07:59:40;99684.66;;;2.78;100.00
22283;BME280;11310;51.528;21.204;2022-12-29T08:02:11;99677.53;;;2.89;100.00
22283;BME280;11310;51.528;21.204;2022-12-29T08:04:40;99685.03;;;3.01;100.00
22283;BME280;11310;51.528;21.204;2022-12-29T08:07:09;99677.06;;;3.11;100.00
22283;BME280;11310;51.528;21.204;2022-12-29T08:09:38;99677.66;;;3.22;100.00
22283;BME280;11310;51.528;21.204;2022-12-29T08:12:10;99680.06;;;3.30;100.00
22283;BME280;11310;51.528;21.204;2022-12-29T08:14:39;99686.75;;;3.40;100.00
22283;BME280;11310;51.528;21.204;2022-12-29T08:17:08;99678.72;;;3.50;100.00
22283;BME280;11310;51.528;21.204;2022-12-29T08:19:37;99680.19;;;3.62;100.00
22283;BME280;11310;51.528;21.204;2022-12-29T08:22:07;99682.69;;;3.66;100.00
22283;BME280;11310;51.528;21.204;2022-12-29T08:24:36;99685.94;;;3.73;100.00
22283;BME280;11310;51.528;21.204;2022-12-29T08:27:04;99675.41;;;3.80;100.00
22283;BME280;11310;51.528;21.204;2022-12-29T08:29:47;99676.84;;;3.92;100.00
22283;BME280;11310;51.528;21.204;2022-12-29T08:32:17;99667.13;;;4.00;100.00
22283;BME280;11310;51.528;21.204;2022-12-29T08:34:46;99662.53;;;4.11;100.00
22283;BME280;11310;51.528;21.204;2022-12-29T08:37:15;99663.06;;;4.22;100.00
22283;BME280;11310;51.528;21.204;2022-12-29T08:39:44;99672.31;;;4.32;100.00
22283;BME280;11310;51.528;21.204;2022-12-29T08:42:13;99671.94;;;4.47;100.00
22283;BME280;11310;51.528;21.204;2022-12-29T08:44:42;99660.88;;;4.69;100.00
22283;BME280;11310;51.528;21.204;2022-12-29T08:47:12;99660.25;;;4.92;100.00
22283;BME280;11310;51.528;21.204;2022-12-29T08:49:41;99656.00;;;5.17;100.00
22283;BME280;11310;51.528;21.204;2022-12-29T08:52:10;99656.94;;;5.42;100.00
22283;BME280;11310;51.528;21.204;2022-12-29T08:54:39;99654.59;;;5.62;100.00
22283;BME280;11310;51.528;21.204;2022-12-29T08:57:09;99651.44;;;5.78;100.00
22283;BME280;11310;51.528;21.204;2022-12-29T08:59:55;99661.59;;;5.87;100.00
22283;BME280;11310;51.528;21.204;2022-12-29T09:02:25;99660.66;;;5.88;100.00
22283;BME280;11310;51.528;21.204;2022-12-29T09:04:55;99661.50;;;5.90;100.00
22283;BME280;11310;51.528;21.204;2022-12-29T09:07:25;99665.84;;;5.90;100.00
22283;BME280;11310;51.528;21.204;2022-12-29T09:09:58;99671.94;;;5.89;100.00
22283;BME280;11310;51.528;21.204;2022-12-29T09:12:28;99672.00;;;5.87;100.00
22283;BME280;11310;51.528;21.204;2022-12-29T09:15:03;99668.53;;;5.87;100.00
22283;BME280;11310;51.528;21.204;2022-12-29T09:17:34;99663.31;;;5.87;100.00
22283;BME280;11310;51.528;21.204;2022-12-29T09:20:13;99652.91;;;5.87;100.00
22283;BME280;11310;51.528;21.204;2022-12-29T09:22:44;99668.53;;;5.87;100.00
22283;BME280;11310;51.528;21.204;2022-12-29T09:25:16;99657.25;;;5.88;100.00
22283;BME280;11310;51.528;21.204;2022-12-29T09:27:45;99660.63;;;5.90;100.00
22283;BME280;11310;51.528;21.204;2022-12-29T09:30:15;99651.00;;;5.92;100.00
22283;BME280;11310;51.528;21.204;2022-12-29T09:32:46;99653.50;;;5.95;100.00
22283;BME280;11310;51.528;21.204;2022-12-29T09:35:22;99652.50;;;5.99;100.00
22283;BME280;11310;51.528;21.204;2022-12-29T09:37:51;99655.81;;;6.04;100.00
22283;BME280;11310;51.528;21.204;2022-12-29T09:40:26;99647.69;;;6.13;100.00
22283;BME280;11310;51.528;21.204;2022-12-29T09:46:11;99648.97;;;6.26;100.00
22283;BME280;11310;51.528;21.204;2022-12-29T09:48:51;99651.31;;;6.33;100.00
22283;BME280;11310;51.528;21.204;2022-12-29T09:51:23;99644.91;;;6.42;100.00
22283;BME280;11310;51.528;21.204;2022-12-29T09:53:56;99648.00;;;6.53;100.00
22283;BME280;11310;51.528;21.204;2022-12-29T09:56:27;99638.94;;;6.63;100.00
22283;BME280;11310;51.528;21.204;2022-12-29T09:59:04;99638.72;;;6.69;100.00
22283;BME280;11310;51.528;21.204;2022-12-29T10:01:41;99636.69;;;6.77;100.00
22283;BME280;11310;51.528;21.204;2022-12-29T10:04:13;99630.88;;;6.92;100.00
22283;BME280;11310;51.528;21.204;2022-12-29T10:06:47;99617.16;;;7.10;100.00
22283;BME280;11310;51.528;21.204;2022-12-29T10:09:44;99620.28;;;7.41;100.00
22283;BME280;11310;51.528;21.204;2022-12-29T10:12:23;99611.00;;;7.55;100.00
22283;BME280;11310;51.528;21.204;2022-12-29T10:15:03;99615.50;;;7.72;100.00
22283;BME280;11310;51.528;21.204;2022-12-29T10:17:40;99613.31;;;7.83;100.00
22283;BME280;11310;51.528;21.204;2022-12-29T10:20:27;99607.53;;;7.96;100.00
22283;BME280;11310;51.528;21.204;2022-12-29T10:23:20;99605.22;;;8.09;88.79
22283;BME280;11310;51.528;21.204;2022-12-29T10:25:54;99595.84;;;8.25;95.92
22283;BME280;11310;51.528;21.204;2022-12-29T10:28:33;99588.53;;;8.33;97.31
22283;BME280;11310;51.528;21.204;2022-12-29T10:31:06;99583.16;;;8.36;96.59
22283;BME280;11310;51.528;21.204;2022-12-29T10:33:40;99596.75;;;8.44;96.34
22283;BME280;11310;51.528;21.204;2022-12-29T10:36:16;99595.69;;;8.48;94.23
22283;BME280;11310;51.528;21.204;2022-12-29T10:38:51;99599.84;;;8.52;95.03
22283;BME280;11310;51.528;21.204;2022-12-29T10:41:27;99602.28;;;8.56;94.71
22283;BME280;11310;51.528;21.204;2022-12-29T10:43:57;99600.50;;;8.57;95.21
22283;BME280;11310;51.528;21.204;2022-12-29T10:46:32;99606.78;;;8.53;96.80
22283;BME280;11310;51.528;21.204;2022-12-29T10:49:03;99600.00;;;8.49;96.40
22283;BME280;11310;51.528;21.204;2022-12-29T10:51:37;99598.28;;;8.48;95.81
22283;BME280;11310;51.528;21.204;2022-12-29T10:54:13;99602.88;;;8.43;95.39
22283;BME280;11310;51.528;21.204;2022-12-29T10:56:46;99594.31;;;8.39;96.89
22283;BME280;11310;51.528;21.204;2022-12-29T10:59:19;99584.72;;;8.40;96.39
22283;BME280;11310;51.528;21.204;2022-12-29T11:01:56;99585.38;;;8.45;97.52
22283;BME280;11310;51.528;21.204;2022-12-29T11:04:43;99581.38;;;8.56;94.22
22283;BME280;11310;51.528;21.204;2022-12-29T11:07:18;99567.09;;;8.82;93.89
22283;BME280;11310;51.528;21.204;2022-12-29T11:09:53;99573.97;;;8.84;92.82
22283;BME280;11310;51.528;21.204;2022-12-29T11:12:25;99569.06;;;8.95;93.90
22283;BME280;11310;51.528;21.204;2022-12-29T11:15:12;99572.25;;;9.02;92.42
22283;BME280;11310;51.528;21.204;2022-12-29T11:17:45;99580.22;;;9.17;90.60
22283;BME280;11310;51.528;21.204;2022-12-29T11:20:29;99579.72;;;9.28;90.35
22283;BME280;11310;51.528;21.204;2022-12-29T11:23:00;99572.56;;;9.31;90.78
22283;BME280;11310;51.528;21.204;2022-12-29T11:25:30;99567.13;;;9.36;91.89
22283;BME280;11310;51.528;21.204;2022-12-29T11:28:02;99564.31;;;9.39;90.62
22283;BME280;11310;51.528;21.204;2022-12-29T11:30:32;99562.50;;;9.41;88.67
22283;BME280;11310;51.528;21.204;2022-12-29T11:33:03;99564.06;;;9.45;91.02
22283;BME280;11310;51.528;21.204;2022-12-29T11:35:34;99562.56;;;9.39;88.43
22283;BME280;11310;51.528;21.204;2022-12-29T11:38:18;99548.25;;;9.29;91.16
22283;BME280;11310;51.528;21.204;2022-12-29T11:40:51;99556.84;;;9.31;91.16
22283;BME280;11310;51.528;21.204;2022-12-29T11:43:31;99562.09;;;9.31;89.26
22283;BME280;11310;51.528;21.204;2022-12-29T11:46:01;99556.03;;;9.31;91.14
22283;BME280;11310;51.528;21.204;2022-12-29T11:48:37;99550.00;;;9.29;90.82
22283;BME280;11310;51.528;21.204;2022-12-29T11:51:08;99556.84;;;9.31;91.08
22283;BME280;11310;51.528;21.204;2022-12-29T11:53:43;99553.53;;;9.28;91.39
22283;BME280;11310;51.528;21.204;2022-12-29T11:56:16;99552.63;;;9.29;92.32
22283;BME280;11310;51.528;21.204;2022-12-29T11:58:50;99547.44;;;9.27;90.95
22283;BME280;11310;51.528;21.204;2022-12-29T12:01:24;99560.41;;;9.30;91.56
22283;BME280;11310;51.528;21.204;2022-12-29T12:04:01;99561.09;;;9.34;90.72
22283;BME280;11310;51.528;21.204;2022-12-29T12:06:33;99566.19;;;9.37;91.54
22283;BME280;11310;51.528;21.204;2022-12-29T12:09:05;99564.56;;;9.34;86.95
22283;BME280;11310;51.528;21.204;2022-12-29T12:11:38;99571.50;;;9.35;91.13
22283;BME280;11310;51.528;21.204;2022-12-29T12:14:17;99562.50;;;9.41;91.64
22283;BME280;11310;51.528;21.204;2022-12-29T12:17:26;99564.94;;;9.44;92.42
22283;BME280;11310;51.528;21.204;2022-12-29T12:20:14;99558.66;;;9.48;89.84
22283;BME280;11310;51.528;21.204;2022-12-29T12:22:54;99566.06;;;9.57;91.15
22283;BME280;11310;51.528;21.204;2022-12-29T12:25:33;99564.44;;;9.54;91.02
22283;BME280;11310;51.528;21.204;2022-12-29T12:28:10;99561.00;;;9.54;92.10
22283;BME280;11310;51.528;21.204;2022-12-29T12:30:45;99556.56;;;9.54;92.39
22283;BME280;11310;51.528;21.204;2022-12-29T12:33:24;99555.56;;;9.57;91.64
22283;BME280;11310;51.528;21.204;2022-12-29T12:38:59;99541.72;;;9.89;89.73
22283;BME280;11310;51.528;21.204;2022-12-29T12:41:41;99545.72;;;9.96;85.31
22283;BME280;11310;51.528;21.204;2022-12-29T12:44:18;99547.28;;;10.00;85.89
22283;BME280;11310;51.528;21.204;2022-12-29T12:47:09;99546.34;;;10.01;87.08
22283;BME280;11310;51.528;21.204;2022-12-29T12:53:05;99541.66;;;9.90;87.14
22283;BME280;11310;51.528;21.204;2022-12-29T12:55:47;99555.69;;;9.89;89.65
22283;BME280;11310;51.528;21.204;2022-12-29T12:58:26;99560.06;;;9.89;88.98
22283;BME280;11310;51.528;21.204;2022-12-29T13:01:11;99556.22;;;9.96;88.63
22283;BME280;11310;51.528;21.204;2022-12-29T13:03:53;99547.91;;;10.05;88.13
22283;BME280;11310;51.528;21.204;2022-12-29T13:06:37;99551.91;;;10.12;88.99
22283;BME280;11310;51.528;21.204;2022-12-29T13:09:48;99555.66;;;10.23;82.68
22283;BME280;11310;51.528;21.204;2022-12-29T13:12:29;99555.19;;;10.32;87.61
22283;BME280;11310;51.528;21.204;2022-12-29T13:15:11;99552.16;;;10.40;87.68
22283;BME280;11310;51.528;21.204;2022-12-29T13:17:49;99553.69;;;10.44;88.14
22283;BME280;11310;51.528;21.204;2022-12-29T13:20:29;99550.13;;;10.45;88.01
22283;BME280;11310;51.528;21.204;2022-12-29T13:23:05;99554.69;;;10.41;88.15
22283;BME280;11310;51.528;21.204;2022-12-29T13:25:41;99554.16;;;10.35;88.63
22283;BME280;11310;51.528;21.204;2022-12-29T13:28:18;99554.84;;;10.23;90.92
22283;BME280;11310;51.528;21.204;2022-12-29T13:30:54;99548.19;;;10.16;88.80
22283;BME280;11310;51.528;21.204;2022-12-29T13:33:32;99542.34;;;10.11;90.25
22283;BME280;11310;51.528;21.204;2022-12-29T13:36:10;99550.56;;;10.03;91.03
22283;BME280;11310;51.528;21.204;2022-12-29T13:38:44;99546.50;;;9.98;92.05
22283;BME280;11310;51.528;21.204;2022-12-29T13:41:16;99540.97;;;9.87;89.87
22283;BME280;11310;51.528;21.204;2022-12-29T13:43:50;99542.09;;;9.81;92.58